Flight Track Log - Related Links

Times and Time Zones

All times are in EST time to prevent confusion due to time zone crossing. See the AWE1974 flight status page for this flight to view local times or setup timezone preferences in your user account.

Time Position Orientation Groundspeed Altitude Reporting Facility
EST Latitude Longitude Course Direction KTS MPH feet Rate Location/Type
Sun 07:46:07 AM 35.2289 -80.9572 266° West 162 186 1,700  Level Atlanta Center
Sun 07:46:49 AM 35.2586 -80.9714 339° North 166 191 2,700 1,431 Climbing Atlanta Center
Sun 07:47:56 AM 35.2914 -81.0361 302° West 251 289 4,300 1,820 Climbing Atlanta Center
Sun 07:48:18 AM 35.2839 -81.0722 256° West 252 290 5,400 3,049 Climbing Atlanta Center
Sun 07:48:57 AM 35.2811 -81.1281 267° West 266 306 7,400 2,500 Climbing Atlanta Center
Sun 07:49:00 AM 35.3402 -81.4738 270° West  Level Estimated
Sun 07:49:18 AM 35.2775 -81.1589 262° West 279 321 7,900  Level Atlanta Center
Sun 07:50:00 AM 35.3715 -81.6053 259° West  Level Estimated
Sun 07:50:18 AM 35.2622 -81.2178 252° West 276 318 9,000  Level Atlanta Center
Sun 07:51:00 AM 35.4026 -81.7368 266° West  Level Estimated
Sun 07:51:18 AM 35.2250 -81.3258 247° West 276 318 11,400  Level Atlanta Center
Sun 07:52:18 AM 35.1853 -81.4161 242° Southwest 296 341 13,300 1,950 Climbing Atlanta Center
Sun 07:53:18 AM 35.1458 -81.5242 246° West 321 369 15,300 2,100 Climbing Atlanta Center
Sun 07:54:18 AM 35.1394 -81.6258 266° West 331 381 17,500 1,950 Climbing Atlanta Center
Sun 07:55:18 AM 35.1314 -81.7431 265° West 342 394 19,200 1,700 Climbing Atlanta Center
Sun 07:56:18 AM 35.1211 -81.8600 264° West 347 399 20,900 1,800 Climbing Atlanta Center
Sun 07:57:18 AM 35.1128 -81.9872 265° West 362 417 22,800 1,050 Climbing Atlanta Center
Sun 07:58:18 AM 35.1022 -82.1094 264° West 368 423 23,000 700 Climbing Atlanta Center
Sun 07:59:18 AM 35.0917 -82.2339 264° West 379 436 24,200 850 Climbing Atlanta Center
Sun 08:00:18 AM 35.1122 -82.3631 281° West 373 429 24,700 500 Climbing Atlanta Center
Sun 08:01:18 AM 35.1453 -82.4969 287° West 394 453 25,200 550 Climbing Atlanta Center
Sun 08:02:18 AM 35.1825 -82.6361 288° West 416 479 25,800 750 Climbing Atlanta Center
Sun 08:03:18 AM 35.2194 -82.7778 288° West 436 502 26,700 1,100 Climbing Atlanta Center
Sun 08:04:18 AM 35.2564 -82.9325 286° West 435 501 28,000 650 Climbing Atlanta Center
Sun 08:05:18 AM 35.2908 -83.0719 287° West 429 494 28,000  Level Atlanta Center
Sun 08:06:18 AM 35.3253 -83.2114 287° West 423 487 28,000  Level Atlanta Center
Sun 08:07:18 AM 35.3594 -83.3511 287° West 423 487 28,000  Level Atlanta Center
Sun 08:08:18 AM 35.3958 -83.4883 288° West 423 487 28,000  Level Atlanta Center
Sun 08:09:18 AM 35.4297 -83.6258 287° West 423 487 28,000  Level Atlanta Center
Sun 08:10:18 AM 35.4633 -83.7633 287° West 423 487 28,000  Level Atlanta Center
Sun 08:11:18 AM 35.4969 -83.9011 287° West 423 487 28,000 3,000 Level Atlanta Center
Sun 08:12:18 AM 35.5306 -84.0414 286° West 423 487 34,000  Climbing Atlanta Center
Sun 08:13:18 AM 35.5639 -84.1792 287° West 423 487 28,000 -2,600 Descending Atlanta Center
Sun 08:14:18 AM 35.5969 -84.3172 286° West 423 487 28,800 850 Climbing Atlanta Center
Sun 08:15:18 AM 35.6300 -84.4528 287° West 418 481 29,700 1,050 Climbing Atlanta Center
Sun 08:16:18 AM 35.6628 -84.5908 286° West 418 481 30,900 1,000 Climbing Atlanta Center
Sun 08:18:12 AM 35.7183 -84.8303 286° West 410 472 32,600 1,063 Climbing Memphis Center
Sun 08:19:13 AM 35.7497 -84.9681 286° West 408 470 34,000 689 Climbing Memphis Center
Sun 08:20:14 AM 35.7822 -85.1006 287° West 400 460 34,000  Level Memphis Center
Sun 08:21:15 AM 35.8128 -85.2339 286° West 400 460 34,000  Level Memphis Center
Sun 08:22:15 AM 35.8431 -85.3658 286° West 398 458 34,000  Level Memphis Center
Sun 08:23:16 AM 35.8728 -85.4981 286° West 399 459 34,000  Level Memphis Center
Sun 08:24:17 AM 35.9033 -85.6294 286° West 400 460 34,000  Level Memphis Center
Sun 08:25:18 AM 35.9331 -85.7611 286° West 399 459 34,000  Level Memphis Center
Sun 08:26:18 AM 35.9625 -85.8950 285° West 400 460 34,000  Level Memphis Center
Sun 08:27:19 AM 35.9928 -86.0297 286° West 402 463 34,000  Level Memphis Center
Sun 08:28:20 AM 36.0228 -86.1647 285° West 403 464 34,000  Level Memphis Center
Sun 08:29:21 AM 36.0525 -86.3003 285° West 404 465 34,000  Level Memphis Center
Sun 08:30:22 AM 36.0819 -86.4364 285° West 406 467 34,000  Level Memphis Center
Sun 08:31:23 AM 36.1119 -86.5717 285° West 405 466 34,000  Level Memphis Center
Sun 08:32:23 AM 36.1406 -86.7075 285° West 403 464 34,000  Level Memphis Center
Sun 08:33:24 AM 36.1750 -86.8450 287° West 406 467 34,000  Level Memphis Center
Sun 08:34:25 AM 36.2089 -86.9842 287° West 410 472 34,000  Level Memphis Center
Sun 08:35:26 AM 36.2425 -87.1214 287° West 409 471 34,000  Level Memphis Center
Sun 08:36:27 AM 36.2756 -87.2558 287° West 404 465 34,000  Level Memphis Center
Sun 08:37:28 AM 36.3081 -87.3911 287° West 404 465 34,000  Level Memphis Center
Sun 08:38:29 AM 36.3400 -87.5261 286° West 404 465 34,000  Level Memphis Center
Sun 08:39:30 AM 36.3719 -87.6608 286° West 404 465 34,000  Level Memphis Center
Sun 08:40:31 AM 36.4036 -87.7969 286° West 405 466 34,000  Level Memphis Center
Sun 08:41:32 AM 36.4347 -87.9336 286° West 407 468 34,000  Level Memphis Center
Sun 08:42:33 AM 36.4675 -88.0725 286° West 412 474 34,000  Level Memphis Center
Sun 08:43:34 AM 36.5014 -88.2192 286° West 412 474 34,000  Level Memphis Center
Sun 08:44:35 AM 36.5319 -88.3572 285° West 414 476 34,000  Level Memphis Center
Sun 08:45:36 AM 36.5644 -88.4944 286° West 415 478 34,000  Level Memphis Center
Sun 08:46:37 AM 36.5947 -88.6325 285° West 415 478 34,000  Level Memphis Center
Sun 08:47:38 AM 36.6261 -88.7697 286° West 415 478 34,000  Level Memphis Center
Sun 08:48:39 AM 36.6569 -88.9069 286° West 414 476 34,000  Level Memphis Center
Sun 08:49:40 AM 36.6878 -89.0453 286° West 416 479 34,000  Level Memphis Center
Sun 08:50:41 AM 36.7236 -89.2119 285° West 419 482 34,000  Level Memphis Center
Sun 08:51:42 AM 36.7547 -89.3508 286° West 420 483 34,000  Level Memphis Center
Sun 08:52:44 AM 36.7850 -89.4914 285° West 422 486 34,000  Level Memphis Center
Sun 08:53:45 AM 36.8164 -89.6331 286° West 425 489 34,000  Level Memphis Center
Sun 08:54:46 AM 36.8461 -89.7747 285° West 425 489 34,000  Level Memphis Center
Sun 08:55:47 AM 36.8767 -89.9181 285° West 426 490 34,000  Level Memphis Center
Sun 08:56:48 AM 36.9075 -90.0600 285° West 425 489 34,000  Level Memphis Center
Sun 08:57:29 AM 36.9322 -90.1769 285° West 426 490 34,000  Level Kansas City Center
Sun 08:58:30 AM 36.9619 -90.3211 285° West 427 491 34,000  Level Kansas City Center
Sun 08:59:31 AM 36.9922 -90.4653 285° West 428 493 34,000  Level Kansas City Center
Sun 09:00:32 AM 37.0206 -90.6081 284° West 423 487 34,000  Level Kansas City Center
Sun 09:01:33 AM 37.0500 -90.7536 284° West 428 493 34,000  Level Kansas City Center
Sun 09:02:34 AM 37.0800 -90.8997 284° West 433 498 34,000  Level Kansas City Center
Sun 09:03:35 AM 37.1064 -91.0431 283° West 429 494 34,000  Level Kansas City Center
Sun 09:04:36 AM 37.1381 -91.1878 285° West 428 493 34,000  Level Kansas City Center
Sun 09:05:37 AM 37.1669 -91.3336 284° West 429 494 34,000  Level Kansas City Center
Sun 09:06:38 AM 37.1961 -91.4803 284° West 430 495 34,000  Level Kansas City Center
Sun 09:07:39 AM 37.2253 -91.6261 284° West 430 495 34,000  Level Kansas City Center
Sun 09:08:40 AM 37.2550 -91.7728 284° West 431 496 34,000  Level Kansas City Center
Sun 09:09:41 AM 37.2839 -91.9197 284° West 431 496 34,000  Level Kansas City Center
Sun 09:10:42 AM 37.3114 -92.0669 283° West 430 495 34,000  Level Kansas City Center
Sun 09:11:43 AM 37.3411 -92.2147 284° West 432 497 34,000  Level Kansas City Center
Sun 09:12:44 AM 37.3744 -92.3931 283° West 432 497 34,000  Level Kansas City Center
Sun 09:13:45 AM 37.4028 -92.5428 283° West 434 499 34,000  Level Kansas City Center
Sun 09:14:46 AM 37.4308 -92.6911 283° West 433 498 34,000  Level Kansas City Center
Sun 09:15:47 AM 37.4589 -92.8383 284° West 431 496 34,000  Level Kansas City Center
Sun 09:16:48 AM 37.4864 -92.9872 283° West 431 496 34,000  Level Kansas City Center
Sun 09:17:49 AM 37.5131 -93.1344 283° West 430 495 34,000  Level Kansas City Center
Sun 09:18:50 AM 37.5408 -93.2833 283° West 431 496 34,000  Level Kansas City Center
Sun 09:19:51 AM 37.5678 -93.4333 283° West 435 501 34,000  Level Kansas City Center
Sun 09:20:52 AM 37.5947 -93.5819 283° West 434 499 34,000  Level Kansas City Center
Sun 09:21:54 AM 37.6214 -93.7314 283° West 434 499 34,000  Level Kansas City Center
Sun 09:22:55 AM 37.6486 -93.8817 283° West 436 502 34,000  Level Kansas City Center
Sun 09:23:56 AM 37.6747 -94.0325 282° West 437 503 34,000  Level Kansas City Center
Sun 09:24:57 AM 37.6989 -94.1811 282° West 434 499 34,000  Level Kansas City Center
Sun 09:25:58 AM 37.7250 -94.3314 282° West 436 502 34,000  Level Kansas City Center
Sun 09:26:59 AM 37.7528 -94.4906 282° West 437 503 34,000  Level Kansas City Center
Sun 09:28:01 AM 37.7772 -94.6347 282° West 438 504 34,000  Level Kansas City Center
Sun 09:29:02 AM 37.8058 -94.8028 282° West 438 504 34,000  Level Kansas City Center
Sun 09:30:03 AM 37.8306 -94.9492 282° West 440 506 34,000  Level Kansas City Center
Sun 09:31:04 AM 37.8542 -95.0953 282° West 442 509 34,000  Level Kansas City Center
Sun 09:32:05 AM 37.8814 -95.2589 282° West 444 511 34,000  Level Kansas City Center
Sun 09:33:07 AM 37.9058 -95.4114 282° West 444 511 34,000  Level Kansas City Center
Sun 09:34:08 AM 37.9308 -95.5669 282° West 447 514 34,000  Level Kansas City Center
Sun 09:35:09 AM 37.9567 -95.7364 281° West 448 516 34,000  Level Kansas City Center
Sun 09:36:10 AM 37.9803 -95.8814 282° West 441 507 34,000  Level Kansas City Center
Sun 09:37:12 AM 38.0078 -96.0522 282° West 442 509 34,000  Level Kansas City Center
Sun 09:38:13 AM 38.0300 -96.1867 282° West 436 502 34,000  Level Kansas City Center
Sun 09:39:14 AM 38.0542 -96.3381 282° West 438 504 34,000  Level Kansas City Center
Sun 09:40:15 AM 38.0789 -96.4906 282° West 441 507 34,000  Level Kansas City Center
Sun 09:41:17 AM 38.1019 -96.6422 281° West 440 506 34,000  Level Kansas City Center
Sun 09:42:18 AM 38.1300 -96.8244 281° West 439 505 34,000  Level Kansas City Center
Sun 09:43:19 AM 38.1533 -96.9742 281° West 434 499 34,000  Level Kansas City Center
Sun 09:44:21 AM 38.1753 -97.1242 281° West 433 498 34,000  Level Kansas City Center
Sun 09:45:22 AM 38.1978 -97.2736 281° West 434 499 34,000  Level Kansas City Center
Sun 09:46:23 AM 38.2208 -97.4228 281° West 432 497 34,000  Level Kansas City Center
Sun 09:47:25 AM 38.2425 -97.5725 280° West 433 498 34,000  Level Kansas City Center
Sun 09:48:26 AM 38.2644 -97.7214 281° West 433 498 34,000  Level Kansas City Center
Sun 09:49:27 AM 38.2864 -97.8708 281° West 434 499 34,000  Level Kansas City Center
Sun 09:50:29 AM 38.3114 -98.0503 280° West 434 499 34,000  Level Kansas City Center
Sun 09:51:30 AM 38.3336 -98.2003 281° West 435 501 34,000  Level Kansas City Center
Sun 09:52:32 AM 38.3497 -98.3500 278° West 430 495 34,000  Level Kansas City Center
Sun 09:53:33 AM 38.3589 -98.5011 274° West 430 495 34,000  Level Kansas City Center
Sun 09:54:34 AM 38.3683 -98.6522 275° West 430 495 34,000  Level Kansas City Center
Sun 09:55:36 AM 38.3778 -98.8017 275° West 426 490 34,000  Level Kansas City Center
Sun 09:56:37 AM 38.3858 -98.9531 274° West 428 493 34,000  Level Kansas City Center
Sun 09:57:39 AM 38.3975 -99.1325 275° West 426 490 34,000  Level Kansas City Center
Sun 09:58:40 AM 38.4058 -99.2819 274° West 424 488 34,000  Level Kansas City Center
Sun 09:59:42 AM 38.4139 -99.4306 274° West 423 487 34,000  Level Kansas City Center
Sun 10:00:43 AM 38.4225 -99.5761 274° West 421 484 34,000  Level Kansas City Center
Sun 10:01:44 AM 38.4319 -99.7444 274° West 424 488 34,000  Level Kansas City Center
Sun 10:02:46 AM 38.4369 -99.8867 273° West 423 487 34,000  Level Kansas City Center
Sun 10:03:47 AM 38.4464 -100.0317 275° West 428 493 34,000  Level Kansas City Center
Sun 10:04:49 AM 38.4533 -100.1986 273° West 425 489 34,000  Level Kansas City Center
Sun 10:05:50 AM 38.4614 -100.3447 274° West 429 494 34,000  Level Kansas City Center
Sun 10:06:52 AM 38.4683 -100.5131 273° West 428 493 34,000  Level Kansas City Center
Sun 10:07:53 AM 38.4756 -100.6572 274° West 428 493 34,000  Level Kansas City Center
Sun 10:08:55 AM 38.4825 -100.8264 273° West 429 494 34,000  Level Kansas City Center
Sun 10:09:30 AM 38.4867 -100.8986 274° West 432 497 34,000  Level Denver Center
Sun 10:10:31 AM 38.4931 -101.0656 273° West 427 491 34,000  Level Denver Center
Sun 10:11:33 AM 38.4997 -101.2097 273° West 427 491 34,000  Level Denver Center
Sun 10:12:34 AM 38.5061 -101.3781 273° West 428 493 34,000  Level Denver Center
Sun 10:13:35 AM 38.5119 -101.5247 273° West 431 496 34,000  Level Denver Center
Sun 10:14:36 AM 38.5167 -101.6689 272° West 428 493 34,000  Level Denver Center
Sun 10:15:38 AM 38.5231 -101.8392 273° West 431 496 34,000  Level Denver Center
Sun 10:16:39 AM 38.5275 -101.9850 272° West 430 495 34,000  Level Denver Center
Sun 10:17:40 AM 38.5322 -102.1564 272° West 433 498 34,000  Level Denver Center
Sun 10:18:42 AM 38.5378 -102.3025 273° West 432 497 34,000  Level Denver Center
Sun 10:19:43 AM 38.5419 -102.4481 272° West 432 497 34,000  Level Denver Center
Sun 10:20:44 AM 38.5469 -102.6183 272° West 429 494 34,000  Level Denver Center
Sun 10:21:46 AM 38.5519 -102.7656 273° West 433 498 34,000  Level Denver Center
Sun 10:22:47 AM 38.5572 -102.9361 272° West 433 498 34,000  Level Denver Center
Sun 10:23:49 AM 38.5600 -103.0833 271° West 433 498 34,000  Level Denver Center
Sun 10:24:50 AM 38.5644 -103.2539 272° West 432 497 34,000  Level Denver Center
Sun 10:25:52 AM 38.5683 -103.3986 272° West 428 493 34,000  Level Denver Center
Sun 10:26:53 AM 38.5706 -103.5486 271° West 432 497 34,000  Level Denver Center
Sun 10:27:55 AM 38.5744 -103.7181 272° West 430 495 34,000  Level Denver Center
Sun 10:28:56 AM 38.5764 -103.8633 271° West 429 494 34,000  Level Denver Center
Sun 10:29:58 AM 38.5786 -104.0103 271° West 432 497 34,000  Level Denver Center
Sun 10:31:00 AM 38.5817 -104.1697 271° West 431 496 34,000  Level Denver Center
Sun 10:32:01 AM 38.5844 -104.3242 271° West 433 498 34,000  Level Denver Center
Sun 10:33:03 AM 38.5867 -104.4764 271° West 431 496 34,000  Level Denver Center
Sun 10:34:04 AM 38.5892 -104.6614 271° West 432 497 34,000  Level Denver Center
Sun 10:35:06 AM 38.5911 -104.8178 271° West 437 503 34,000  Level Denver Center
Sun 10:36:08 AM 38.5928 -104.9728 271° West 438 504 34,000  Level Denver Center
Sun 10:37:10 AM 38.5931 -105.1300 270° West 440 506 34,000  Level Denver Center
Sun 10:38:11 AM 38.5947 -105.2869 271° West 441 507 34,000  Level Denver Center
Sun 10:39:13 AM 38.5950 -105.4436 270° West 441 507 34,000  Level Denver Center
Sun 10:40:15 AM 38.5961 -105.5986 271° West 438 504 34,000  Level Denver Center
Sun 10:41:17 AM 38.5961 -105.7522 270° West 435 501 34,000  Level Denver Center
Sun 10:42:18 AM 38.5967 -105.9336 270° West 436 502 34,000  Level Denver Center
Sun 10:43:20 AM 38.5967 -106.0808 270° West 433 498 34,000  Level Denver Center
Sun 10:44:22 AM 38.5969 -106.2525 270° West 439 505 34,000  Level Denver Center
Sun 10:45:24 AM 38.5961 -106.4092 270° West 440 506 34,000  Level Denver Center
Sun 10:46:26 AM 38.5950 -106.5661 270° West 440 506 34,000  Level Denver Center
Sun 10:47:28 AM 38.5936 -106.7242 269° West 443 510 34,000  Level Denver Center
Sun 10:48:29 AM 38.5933 -106.8803 270° West 439 505 34,000  Level Denver Center
Sun 10:49:31 AM 38.5911 -107.0403 269° West 444 511 34,000  Level Denver Center
Sun 10:50:33 AM 38.5897 -107.2039 269° West 442 509 34,000  Level Denver Center
Sun 10:51:35 AM 38.5875 -107.3781 269° West 440 506 34,000  Level Denver Center
Sun 10:52:37 AM 38.5858 -107.5281 269° West 440 506 34,000  Level Denver Center
Sun 10:53:39 AM 38.5828 -107.7050 269° West 444 511 34,000  Level Denver Center
Sun 10:54:41 AM 38.5806 -107.8553 269° West 443 510 34,000  Level Denver Center
Sun 10:55:43 AM 38.5783 -108.0314 269° West 443 510 34,000  Level Denver Center
Sun 10:56:45 AM 38.5756 -108.1817 269° West 442 509 34,000 290 Level Denver Center
Sun 10:57:47 AM 38.5722 -108.3572 269° West 442 509 34,600 829 Climbing Denver Center
Sun 10:58:48 AM 38.5694 -108.5075 269° West 441 507 35,700 976 Climbing Denver Center
Sun 10:59:50 AM 38.5661 -108.6578 268° West 442 509 36,600 1,065 Climbing Denver Center
Sun 11:00:52 AM 38.5622 -108.8331 268° West 440 506 37,900 677 Climbing Denver Center
Sun 11:01:54 AM 38.5578 -108.9803 268° West 431 496 38,000 48 Climbing Denver Center
Sun 11:02:56 AM 38.5533 -109.1522 268° West 432 497 38,000  Level Denver Center
Sun 11:03:58 AM 38.5500 -109.3025 268° West 439 505 38,000  Level Denver Center
Sun 11:05:00 AM 38.5444 -109.4739 268° West 435 501 38,000  Level Denver Center
Sun 11:06:02 AM 38.5397 -109.6222 268° West 435 501 38,000  Level Denver Center
Sun 11:07:04 AM 38.5350 -109.7692 268° West 433 498 38,000  Level Denver Center
Sun 11:08:05 AM 38.5303 -109.9414 268° West 434 499 38,000  Level Denver Center
Sun 11:09:07 AM 38.5242 -110.0894 267° West 435 501 38,000  Level Denver Center
Sun 11:09:58 AM 38.5206 -110.2403 268° West 438 504 38,000  Level Salt Lake Center
Sun 11:10:59 AM 38.5158 -110.3878 268° West 434 499 38,000  Level Salt Lake Center
Sun 11:12:01 AM 38.5097 -110.5350 267° West 435 501 38,000  Level Salt Lake Center
Sun 11:13:02 AM 38.5031 -110.7075 267° West 435 501 38,000  Level Salt Lake Center
Sun 11:14:04 AM 38.4972 -110.8561 267° West 437 503 38,000  Level Salt Lake Center
Sun 11:15:05 AM 38.4908 -111.0039 267° West 435 501 38,000  Level Salt Lake Center
Sun 11:16:07 AM 38.4836 -111.1900 267° West 440 506 38,000  Level Salt Lake Center
Sun 11:17:08 AM 38.4756 -111.3464 266° West 442 509 38,000  Level Salt Lake Center
Sun 11:18:10 AM 38.4686 -111.5022 267° West 442 509 38,000  Level Salt Lake Center
Sun 11:19:11 AM 38.4608 -111.6567 266° West 439 505 38,000  Level Salt Lake Center
Sun 11:20:13 AM 38.4544 -111.8133 267° West 442 509 38,000  Level Salt Lake Center
Sun 11:21:14 AM 38.4461 -111.9669 266° West 439 505 38,000  Level Salt Lake Center
Sun 11:22:16 AM 38.4381 -112.1211 266° West 437 503 38,000  Level Salt Lake Center
Sun 11:23:17 AM 38.4294 -112.2753 266° West 438 504 38,000  Level Salt Lake Center
Sun 11:24:19 AM 38.4192 -112.4619 266° West 442 509 38,000  Level Salt Lake Center
Sun 11:25:20 AM 38.4108 -112.6156 266° West 440 506 38,000  Level Salt Lake Center
Sun 11:26:22 AM 38.4017 -112.7700 266° West 440 506 38,000  Level Salt Lake Center
Sun 11:27:24 AM 38.3925 -112.9242 266° West 440 506 38,000  Level Salt Lake Center
Sun 11:28:25 AM 38.3822 -113.0775 265° West 438 504 38,000  Level Salt Lake Center
Sun 11:29:27 AM 38.3725 -113.2325 265° West 441 507 38,000  Level Salt Lake Center
Sun 11:30:28 AM 38.3617 -113.4178 266° West 440 506 38,000  Level Salt Lake Center
Sun 11:31:30 AM 38.3517 -113.5714 265° West 439 505 38,000  Level Salt Lake Center
Sun 11:32:31 AM 38.3425 -113.7267 266° West 440 506 38,000  Level Salt Lake Center
Sun 11:33:33 AM 38.3322 -113.8811 265° West 441 507 38,000  Level Salt Lake Center
Sun 11:34:35 AM 38.3219 -114.0367 265° West 442 509 38,000  Level Salt Lake Center
Sun 11:35:36 AM 38.3111 -114.1911 265° West 441 507 38,000  Level Salt Lake Center
Sun 11:36:38 AM 38.3000 -114.3439 265° West 438 504 38,000  Level Salt Lake Center
Sun 11:37:39 AM 38.2850 -114.5294 264° West 440 506 38,000  Level Salt Lake Center
Sun 11:38:41 AM 38.2731 -114.6844 264° West 441 507 38,000  Level Salt Lake Center
Sun 11:39:43 AM 38.2597 -114.8394 264° West 442 509 38,000  Level Salt Lake Center
Sun 11:40:44 AM 38.2494 -114.9944 265° West 441 507 38,000  Level Salt Lake Center
Sun 11:41:46 AM 38.2367 -115.1494 264° West 442 509 38,000  Level Salt Lake Center
Sun 11:42:47 AM 38.2258 -115.3058 265° West 444 511 38,000  Level Salt Lake Center
Sun 11:43:49 AM 38.2108 -115.4822 264° West 446 513 38,000  Level Salt Lake Center
Sun 11:44:50 AM 38.1983 -115.6383 264° West 445 512 38,000  Level Salt Lake Center
Sun 11:45:52 AM 38.1856 -115.7964 264° West 448 516 38,000  Level Salt Lake Center
Sun 11:46:54 AM 38.1728 -115.9519 264° West 445 512 38,000  Level Salt Lake Center
Sun 11:47:55 AM 38.1592 -116.1069 264° West 444 511 38,000  Level Salt Lake Center
Sun 11:48:57 AM 38.1450 -116.2619 263° West 441 507 38,000  Level Salt Lake Center
Sun 11:49:47 AM 38.1347 -116.3847 264° West 442 509 38,000  Level Oakland Center
Sun 11:50:48 AM 38.1189 -116.5711 264° West 441 507 38,000  Level Oakland Center
Sun 11:51:49 AM 38.1039 -116.7269 263° West 444 511 38,000  Level Oakland Center
Sun 11:52:50 AM 38.0894 -116.8836 263° West 444 511 38,000  Level Oakland Center
Sun 11:53:51 AM 38.0744 -117.0428 263° West 449 517 38,000  Level Oakland Center
Sun 11:54:52 AM 38.0581 -117.2058 263° West 450 518 38,000  Level Oakland Center
Sun 11:55:53 AM 38.0422 -117.3706 263° West 457 526 38,000  Level Oakland Center
Sun 11:56:54 AM 38.0278 -117.5289 263° West 452 520 38,000  Level Oakland Center
Sun 11:57:56 AM 38.0108 -117.6883 262° West 453 521 38,000  Level Oakland Center
Sun 11:58:57 AM 37.9958 -117.8461 263° West 452 520 38,000  Level Oakland Center
Sun 11:59:58 AM 37.9781 -118.0044 262° West 453 521 38,000  Level Oakland Center
Sun 12:00:59 PM 37.9628 -118.1608 263° West 448 516 38,000  Level Oakland Center
Sun 12:02:00 PM 37.9458 -118.3156 262° West 446 513 38,000  Level Oakland Center
Sun 12:03:01 PM 37.9283 -118.4703 262° West 444 511 38,000  Level Oakland Center
Sun 12:04:02 PM 37.9106 -118.6250 262° West 445 512 38,000  Level Oakland Center
Sun 12:09:35 PM 37.8180 -119.4360 262° West 100 115 38,000  Level FlightAware ADS-B
Sun 12:11:05 PM 37.7910 -119.6620 261° West 433 498 38,000  Level FlightAware ADS-B
Sun 12:11:33 PM 37.7840 -119.7220 262° West 433 498 38,000  Level FlightAware ADS-B
Sun 12:12:24 PM 37.7720 -119.8310 262° West 433 498 38,000  Level FlightAware ADS-B
Sun 12:13:01 PM 37.7630 -119.9100 262° West 433 498 38,000  Level FlightAware ADS-B
Sun 12:13:49 PM 37.7520 -120.0120 262° West 433 498 38,000  Level FlightAware ADS-B
Sun 12:14:24 PM 37.7440 -120.0870 262° West 433 498 38,000  Level FlightAware ADS-B
Sun 12:15:00 PM 37.7350 -120.1630 262° West 433 498 38,000 -4,310 Level FlightAware ADS-B
Sun 12:15:35 PM 37.7060 -120.3510 259° West 457 526 32,900 -3,600 Descending FlightAware ADS-B
Sun 12:16:25 PM 37.6920 -120.4630 261° West 457 526 32,900  Level FlightAware ADS-B
Sun 12:17:01 PM 37.6810 -120.5440 260° West 457 526 32,900  Level FlightAware ADS-B
Sun 12:17:49 PM 37.6680 -120.6510 261° West 457 526 32,900  Level FlightAware ADS-B
Sun 12:18:38 PM 37.6540 -120.7610 261° West 457 526 32,900  Level FlightAware ADS-B
Sun 12:19:15 PM 37.6440 -120.8440 261° West 457 526 32,900  Level FlightAware ADS-B
Sun 12:19:39 PM 37.6370 -120.8980 261° West 457 526 32,900  Level FlightAware ADS-B
Sun 12:20:27 PM 37.6240 -121.0060 261° West 457 526 32,900  Level FlightAware ADS-B
Sun 12:20:52 PM 37.6160 -121.0620 260° West 457 526 32,900  Level FlightAware ADS-B
Sun 12:21:41 PM 37.6030 -121.1710 261° West 457 526 32,900  Level FlightAware ADS-B
Sun 12:22:17 PM 37.5930 -121.2520 261° West 457 526 32,900  Level FlightAware ADS-B
Sun 12:22:41 PM 37.5860 -121.3060 261° West 457 526 32,900  Level FlightAware ADS-B
Sun 12:23:17 PM 37.5760 -121.3860 261° West 457 526 32,900  Level FlightAware ADS-B
Sun 12:24:05 PM 37.5620 -121.4940 261° West 457 526 32,900  Level FlightAware ADS-B
Sun 12:24:42 PM 37.5520 -121.5770 261° West 457 526 32,900  Level FlightAware ADS-B
Sun 12:25:30 PM 37.5380 -121.6840 261° West 457 526 32,900 -15,831 Level FlightAware ADS-B
Sun 12:26:05 PM 37.5500 -121.6500 261° West 287 330 11,000 -14,653 Descending Northern Cal TRACON
Sun 12:27:05 PM 37.5167 -121.7333 243° Southwest 280 322 9,700 -1,150 Descending Northern Cal TRACON
Sun 12:28:05 PM 37.5000 -121.8167 256° West 237 273 8,700 -1,150 Descending Northern Cal TRACON
Sun 12:29:05 PM 37.4833 -121.8833 253° West 201 231 7,400 -1,316 Descending Northern Cal TRACON
Sun 12:29:59 PM 37.4833 -121.9500 270° West 202 232 6,200 -737 Descending Northern Cal TRACON
Sun 12:30:59 PM 37.4667 -122.0167 253° West 200 230 6,000 -600 Descending Northern Cal TRACON
Sun 12:31:59 PM 37.5000 -122.0833 302° West 205 236 5,000 -1,053 Descending Northern Cal TRACON
Sun 12:32:53 PM 37.5167 -122.1333 293° West 202 232 4,000 -1,021 Descending Northern Cal TRACON
Sun 12:33:33 PM 37.5339 -122.1706 300° West 201 231 3,400 -1,010 Descending Oakland Center
Sun 12:34:34 PM 37.5600 -122.2311 299° West 199 229 2,300 -976 Descending Oakland Center
Sun 12:35:36 PM 37.5828 -122.2842 298° West 183 211 1,400 -780 Descending Oakland Center
Sun 12:36:37 PM 37.5997 -122.3247 298° West 147 169 700 -541 Descending Oakland Center
Sun 12:37:38 PM 37.6192 -122.3706 298° West 140 161 300 -393 Descending Oakland Center

Login

Don't have an account? Register now (free) for customized features, flight alerts, and more!